METAR Data
IDs: Format: Raw Decoded Include TAF

Data at: 0801 UTC 11 Dec 2018

PAKI 110756Z AUTO 31017G25KT 10SM SCT036 BKN048 M06/M09 A2894 RMK AO2 SLP804 T10561089 FZRANO
PAKI 110656Z AUTO 31014G21KT 10SM FEW045 M06/M09 A2893 RMK AO2 SLP797 T10611089 FZRANO
PAKI 110556Z AUTO 31015KT 10SM CLR M08/M10 A2892 RMK AO2 SLP794 T10781100 11072 21078 53023 FZRANO
PAKI 110456Z AUTO 32018KT 10SM CLR M08/M10 A2889 RMK AO2 PK WND 33028/0415 SLP785 T10781100 FZRANO
PAKI 110356Z AUTO 33020G28KT 10SM CLR M08/M10 A2887 RMK AO2 PK WND 32030/0308 SLP778 T10781100 FZRANO
PAKI 110256Z AUTO 32022G28KT 10SM FEW120 M08/M10 A2885 RMK AO2 PK WND 32031/0217 SLP771 T10781100 53018 FZRANO
PAKI 110156Z AUTO 32022G29KT 10SM BKN120 M08/M09 A2883 RMK AO2 PK WND 32029/0155 SLP763 T10781094 FZRANO
PAKI 110056Z AUTO 33020G25KT 10SM BKN120 M08/M09 A2881 RMK AO2 PK WND 33029/0031 SLP759 T10781094 FZRANO
PAKI 102356Z AUTO 33022G30KT 10SM FEW120 M08/M09 A2880 RMK AO2 PK WND 33030/2350 SLP753 T10781094 11078 21106 53007 FZRANO
PAKI 102256Z AUTO 33022G29KT 10SM FEW110 M09/M10 A2879 RMK AO2 PK WND 33032/2241 SLP750 T10891100 FZRANO
PAKI 102156Z AUTO 33023G29KT 10SM OVC090 M09/M11 A2878 RMK AO2 PK WND 34030/2136 SLP748 T10941111 FZRANO
PAKI 102056Z AUTO 34021KT 10SM FEW016 M10/M12 A2878 RMK AO2 PK WND 34027/2019 SLP747 T11001117 50013 FZRANO
PAKI 102042Z AUTO 35019G25KT 10SM SCT014 BKN120 M10/M11 A2877 RMK AO2 PK WND 34027/2019 FZRANO
PAKI 102023Z AUTO 34024G27KT 10SM BKN010 OVC014 M10/M12 A2878 RMK AO2 PK WND 34027/2019 CIG 008V013 FZRANO
PAKI 102008Z AUTO 35019G27KT 10SM BKN008 M10/M12 A2877 RMK AO2 PK WND 34027/2001 FZRANO
PAKI 101956Z AUTO 34022KT 10SM SCT006 BKN010 M11/M12 A2878 RMK AO2 PK WND 35029/1858 SLP747 T11061117 FZRANO
PAKI 101856Z AUTO 35020G27KT 10SM OVC008 M10/M12 A2876 RMK AO2 PK WND 35028/1840 SLP741 T11001117 FZRANO
PAKI 101825Z AUTO 35022KT 10SM OVC008 M10/M12 A2874 RMK AO2 PK WND 36027/1822 FZRANO
PAKI 101756Z AUTO 36023G28KT 10SM OVC010 M10/M11 A2874 RMK AO2 PK WND 36028/1749 SNE12 SLP734 P0000 60000 T11001111 11078 21100 55001 FZRANO
PAKI 101712Z AUTO 35022KT 9SM BKN010 M10/M11 A2874 RMK AO2 PK WND 36027/1657 SNE12 P0000 FZRANO
PAKI 101656Z AUTO 36023G27KT 9SM -SN FEW012 M10/M11 A2873 RMK AO2 PK WND 36029/1623 SLP732 P0000 T11001111 FZRANO
PAKI 101556Z AUTO 36022G28KT 9SM -SN CLR M10/M11 A2874 RMK AO2 PK WND 36029/1531 SNE04B50 SLP733 P0000 T11001111 FZRANO
PAKI 101456Z AUTO 01021KT 9SM -SN BKN038 M09/M11 A2874 RMK AO2 PK WND 01027/1446 SNB47 SLP735 P0000 60000 T10941106 58005 FZRANO
PAKI 101412Z AUTO 01022KT 10SM SCT024 OVC070 M09/M10 A2874 RMK AO2 PK WND 01026/1410 FZRANO
PAKI 101356Z AUTO 01023KT 10SM BKN024 OVC075 M09/M10 A2875 RMK AO2 PK WND 36027/1356 SNE29 SLP737 P0000 T10891100 FZRANO
PAKI 101256Z AUTO 01019KT 9SM -SN BKN024 OVC070 M08/M09 A2875 RMK AO2 PK WND 01027/1243 SLP739 P0000 T10781094 FZRANO
PAKI 101206Z AUTO 02021KT 9SM -SN BKN022 OVC070 M08/M09 A2875 RMK AO2 PK WND 02026/1158 P0000 FZRANO
PAKI 101156Z AUTO 02021G26KT 7SM -SN FEW017 SCT022 BKN070 M08/M09 A2876 RMK AO2 PK WND 02027/1131 SLP740 P0000 60000 T10781089 11056 21078 55008 FZRANO
PAKI 101147Z AUTO 02023KT 5SM -SN BR FEW017 BKN070 M08/M09 A2875 RMK AO2 PK WND 02027/1131 P0000 FZRANO
PAKI 101131Z AUTO 02024KT 3SM -SN BR BKN017 OVC070 M08/M09 A2875 RMK AO2 PK WND 02027/1131 P0000 FZRANO
PAKI 101056Z AUTO 02023G26KT 2 1/2SM -SN BR OVC017 M08/M09 A2875 RMK AO2 PK WND 02026/1056 SLP739 P0000 T10781089 FZRANO
PAKI 101043Z AUTO 02022KT 2SM -SN BR OVC019 M08/M09 A2876 RMK AO2 P0000 FZRANO
PAKI 101033Z AUTO 02020KT 1 3/4SM -SN BR OVC021 M08/M09 A2876 RMK AO2 P0000 FZRANO
PAKI 100956Z AUTO 02019G22KT 2 1/2SM -SN BR BKN020 BKN030 OVC034 M07/M08 A2876 RMK AO2 SLP742 P0000 T10721083 FZRANO
PAKI 100945Z AUTO 03017KT 3SM -SN BR SCT022 BKN026 OVC034 M07/M08 A2877 RMK AO2 P0000 FZRANO
PAKI 100932Z AUTO 03019G25KT 2 1/2SM -SN BR SCT020 BKN033 OVC065 M07/M08 A2877 RMK AO2 P0000 FZRANO
PAKI 100921Z AUTO 03019KT 3SM -SN BR SCT014 BKN035 OVC065 M07/M08 A2877 RMK AO2 P0000 FZRANO
PAKI 100856Z AUTO 03017KT 5SM -SN BR BKN019 OVC029 M07/M08 A2878 RMK AO2 SNB36 SLP748 P0000 60000 T10671078 410391072 56016 FZRANO
PAKI 100840Z AUTO 03017KT 10SM -SN SCT021 BKN029 OVC075 M07/M08 A2878 RMK AO2 SNB36 P0000 FZRANO
PAKI 100756Z AUTO 03018KT 10SM FEW035 BKN047 OVC060 M06/M07 A2879 RMK AO2 SNE50 SLP752 P0000 T10611072 FZRANO
PAKI 100656Z AUTO 03014KT 9SM -SN OVC036 M06/M07 A2881 RMK AO2 SNB05 SLP759 P0000 T10561067 FZRANO
PAKI 100556Z AUTO 05015KT 10SM FEW047 BKN055 OVC070 M06/M07 A2883 RMK AO2 SLP764 T10561072 11056 21067 58013 FZRANO
PAKI 100456Z AUTO 04015KT 10SM OVC085 M06/M07 A2884 RMK AO2 SLP769 T10611072 FZRANO
PAKI 100356Z AUTO 04014KT 10SM SCT050 OVC110 M06/M07 A2886 RMK AO2 SLP774 T10611072 FZRANO
PAKI 100256Z AUTO 04013KT 10SM OVC110 M06/M07 A2886 RMK AO2 SLP777 T10611072 56017 FZRANO
PAKI 100156Z AUTO 04013KT 10SM SCT038 BKN110 M06/M07 A2887 RMK AO2 SLP780 T10611072 FZRANO
PAKI 100056Z AUTO 04014KT 10SM OVC040 M06/M07 A2890 RMK AO2 SLP787 T10611072 FZRANO
PAKI 092356Z AUTO 04012KT 10SM BKN120 M07/M08 A2891 RMK AO2 SLP793 T10671078 11050 21072 58010 FZRANO
PAKI 092256Z AUTO 04010KT 10SM CLR M07/M08 A2894 RMK AO2 SLP801 T10721078 FZRANO
PAKI 092156Z AUTO 03011KT 10SM SCT026 SCT040 M07/M08 A2894 RMK AO2 SLP803 T10721078 FZRANO
PAKI 092154Z AUTO 03012KT 10SM SCT026 BKN040 M07/M08 A2894 RMK AO2 FZRANO
PAKI 092144Z AUTO 03011KT 10SM BKN026 BKN038 M07/M08 A2895 RMK AO2 FZRANO
PAKI 092056Z AUTO 03011KT 10SM FEW028 M07/M08 A2896 RMK AO2 SLP810 T10721083 58006 FZRANO